sensor_id;sensor_type;location;lat;lon;timestamp;temperature;humidity
19031;DHT22;9648;51.130;13.978;2023-06-19T00:00:08;14.00;99.90
19031;DHT22;9648;51.130;13.978;2023-06-19T00:02:39;14.00;99.90
19031;DHT22;9648;51.130;13.978;2023-06-19T00:05:06;13.90;99.90
19031;DHT22;9648;51.130;13.978;2023-06-19T00:07:33;13.90;99.90
19031;DHT22;9648;51.130;13.978;2023-06-19T00:10:00;13.80;99.90
19031;DHT22;9648;51.130;13.978;2023-06-19T00:12:29;13.80;99.90
19031;DHT22;9648;51.130;13.978;2023-06-19T00:14:56;13.80;99.90
19031;DHT22;9648;51.130;13.978;2023-06-19T00:17:22;13.80;99.90
19031;DHT22;9648;51.130;13.978;2023-06-19T00:19:52;13.70;99.90
19031;DHT22;9648;51.130;13.978;2023-06-19T00:22:19;13.70;99.90
19031;DHT22;9648;51.130;13.978;2023-06-19T00:24:47;13.70;99.90
19031;DHT22;9648;51.130;13.978;2023-06-19T00:27:14;13.70;99.90
19031;DHT22;9648;51.130;13.978;2023-06-19T00:29:42;13.60;99.90
19031;DHT22;9648;51.130;13.978;2023-06-19T00:32:09;13.60;99.90
19031;DHT22;9648;51.130;13.978;2023-06-19T00:34:36;13.60;99.90
19031;DHT22;9648;51.130;13.978;2023-06-19T00:37:04;13.60;99.90
19031;DHT22;9648;51.130;13.978;2023-06-19T00:39:32;13.60;99.90
19031;DHT22;9648;51.130;13.978;2023-06-19T00:41:59;13.60;99.90
19031;DHT22;9648;51.130;13.978;2023-06-19T00:44:26;13.60;99.90
19031;DHT22;9648;51.130;13.978;2023-06-19T00:46:58;13.50;99.90
19031;DHT22;9648;51.130;13.978;2023-06-19T00:49:25;13.50;99.90
19031;DHT22;9648;51.130;13.978;2023-06-19T00:51:52;13.40;99.90
19031;DHT22;9648;51.130;13.978;2023-06-19T00:54:19;13.40;99.90
19031;DHT22;9648;51.130;13.978;2023-06-19T00:56:46;13.40;99.90
19031;DHT22;9648;51.130;13.978;2023-06-19T00:59:16;13.40;99.90
19031;DHT22;9648;51.130;13.978;2023-06-19T01:01:43;13.30;99.90
19031;DHT22;9648;51.130;13.978;2023-06-19T01:04:11;13.30;99.90
19031;DHT22;9648;51.130;13.978;2023-06-19T01:06:43;13.30;99.90
19031;DHT22;9648;51.130;13.978;2023-06-19T01:09:13;13.30;99.90
19031;DHT22;9648;51.130;13.978;2023-06-19T01:11:49;13.30;99.90
19031;DHT22;9648;51.130;13.978;2023-06-19T01:14:19;13.30;99.90
19031;DHT22;9648;51.130;13.978;2023-06-19T01:16:48;13.30;99.90
19031;DHT22;9648;51.130;13.978;2023-06-19T01:19:19;13.20;99.90
19031;DHT22;9648;51.130;13.978;2023-06-19T01:21:46;13.20;99.90
19031;DHT22;9648;51.130;13.978;2023-06-19T01:24:15;13.20;99.90
19031;DHT22;9648;51.130;13.978;2023-06-19T01:26:41;13.20;99.90
19031;DHT22;9648;51.130;13.978;2023-06-19T01:29:11;13.20;99.90
19031;DHT22;9648;51.130;13.978;2023-06-19T01:31:45;13.10;99.90
19031;DHT22;9648;51.130;13.978;2023-06-19T01:34:12;13.20;99.90
19031;DHT22;9648;51.130;13.978;2023-06-19T01:36:41;13.10;99.90
19031;DHT22;9648;51.130;13.978;2023-06-19T01:39:08;13.10;99.90
19031;DHT22;9648;51.130;13.978;2023-06-19T01:41:38;13.10;99.90
19031;DHT22;9648;51.130;13.978;2023-06-19T01:44:07;13.10;99.90
19031;DHT22;9648;51.130;13.978;2023-06-19T01:46:34;13.10;99.90
19031;DHT22;9648;51.130;13.978;2023-06-19T01:49:06;13.00;99.90
19031;DHT22;9648;51.130;13.978;2023-06-19T01:51:33;13.10;99.90
19031;DHT22;9648;51.130;13.978;2023-06-19T01:53:59;13.00;99.90
19031;DHT22;9648;51.130;13.978;2023-06-19T01:56:26;13.00;99.90
19031;DHT22;9648;51.130;13.978;2023-06-19T01:58:54;13.10;99.90
19031;DHT22;9648;51.130;13.978;2023-06-19T02:01:21;13.00;99.90
19031;DHT22;9648;51.130;13.978;2023-06-19T02:03:48;13.00;99.90
19031;DHT22;9648;51.130;13.978;2023-06-19T02:06:15;13.00;99.90
19031;DHT22;9648;51.130;13.978;2023-06-19T02:08:41;13.00;99.90
19031;DHT22;9648;51.130;13.978;2023-06-19T02:11:08;13.00;99.90
19031;DHT22;9648;51.130;13.978;2023-06-19T02:13:35;12.90;99.90
19031;DHT22;9648;51.130;13.978;2023-06-19T02:16:03;12.90;99.90
19031;DHT22;9648;51.130;13.978;2023-06-19T02:18:30;12.90;99.90
19031;DHT22;9648;51.130;13.978;2023-06-19T02:20:58;12.90;99.90
19031;DHT22;9648;51.130;13.978;2023-06-19T02:23:25;12.90;99.90
19031;DHT22;9648;51.130;13.978;2023-06-19T02:25:52;12.80;99.90
19031;DHT22;9648;51.130;13.978;2023-06-19T02:28:18;12.80;99.90
19031;DHT22;9648;51.130;13.978;2023-06-19T02:30:45;12.70;99.90
19031;DHT22;9648;51.130;13.978;2023-06-19T02:33:13;12.70;99.90
19031;DHT22;9648;51.130;13.978;2023-06-19T02:35:40;12.70;99.90
19031;DHT22;9648;51.130;13.978;2023-06-19T02:38:10;12.70;99.90
19031;DHT22;9648;51.130;13.978;2023-06-19T02:40:38;12.70;99.90
19031;DHT22;9648;51.130;13.978;2023-06-19T02:43:04;12.70;99.90
19031;DHT22;9648;51.130;13.978;2023-06-19T02:45:31;12.70;99.90
19031;DHT22;9648;51.130;13.978;2023-06-19T02:47:58;12.70;99.90
19031;DHT22;9648;51.130;13.978;2023-06-19T02:50:26;12.80;99.90
19031;DHT22;9648;51.130;13.978;2023-06-19T02:52:53;12.80;99.90
19031;DHT22;9648;51.130;13.978;2023-06-19T02:55:20;12.80;99.90
19031;DHT22;9648;51.130;13.978;2023-06-19T02:57:47;12.70;99.90
19031;DHT22;9648;51.130;13.978;2023-06-19T03:00:14;12.70;99.90
19031;DHT22;9648;51.130;13.978;2023-06-19T03:02:41;12.70;99.90
19031;DHT22;9648;51.130;13.978;2023-06-19T03:05:09;12.70;99.90
19031;DHT22;9648;51.130;13.978;2023-06-19T03:07:38;12.80;99.90
19031;DHT22;9648;51.130;13.978;2023-06-19T03:10:06;12.80;99.90
19031;DHT22;9648;51.130;13.978;2023-06-19T03:12:33;12.90;99.90
19031;DHT22;9648;51.130;13.978;2023-06-19T03:14:59;12.90;99.90
19031;DHT22;9648;51.130;13.978;2023-06-19T03:17:26;12.90;99.90
19031;DHT22;9648;51.130;13.978;2023-06-19T03:19:53;12.90;99.90
19031;DHT22;9648;51.130;13.978;2023-06-19T03:22:20;13.00;99.90
19031;DHT22;9648;51.130;13.978;2023-06-19T03:24:48;13.10;99.90
19031;DHT22;9648;51.130;13.978;2023-06-19T03:27:15;13.10;99.90
19031;DHT22;9648;51.130;13.978;2023-06-19T03:29:42;13.20;99.90
19031;DHT22;9648;51.130;13.978;2023-06-19T03:32:09;13.30;99.90
19031;DHT22;9648;51.130;13.978;2023-06-19T03:34:36;13.30;99.90
19031;DHT22;9648;51.130;13.978;2023-06-19T03:37:05;13.40;99.90
19031;DHT22;9648;51.130;13.978;2023-06-19T03:39:32;13.40;99.90
19031;DHT22;9648;51.130;13.978;2023-06-19T03:42:00;13.50;99.90
19031;DHT22;9648;51.130;13.978;2023-06-19T03:44:27;13.60;99.90
19031;DHT22;9648;51.130;13.978;2023-06-19T03:46:55;13.60;99.90
19031;DHT22;9648;51.130;13.978;2023-06-19T03:49:22;13.70;99.90
19031;DHT22;9648;51.130;13.978;2023-06-19T03:51:49;13.80;99.90
19031;DHT22;9648;51.130;13.978;2023-06-19T03:54:16;13.80;99.90
19031;DHT22;9648;51.130;13.978;2023-06-19T03:56:42;13.90;99.90
19031;DHT22;9648;51.130;13.978;2023-06-19T03:59:11;13.90;99.90
19031;DHT22;9648;51.130;13.978;2023-06-19T04:01:37;14.00;99.90
19031;DHT22;9648;51.130;13.978;2023-06-19T04:04:04;14.10;99.90
19031;DHT22;9648;51.130;13.978;2023-06-19T04:06:31;14.10;99.90
19031;DHT22;9648;51.130;13.978;2023-06-19T04:08:58;14.10;99.90
19031;DHT22;9648;51.130;13.978;2023-06-19T04:11:25;14.20;99.90
19031;DHT22;9648;51.130;13.978;2023-06-19T04:13:52;14.30;99.90
19031;DHT22;9648;51.130;13.978;2023-06-19T04:16:20;14.40;99.90
19031;DHT22;9648;51.130;13.978;2023-06-19T04:18:47;14.50;99.90
19031;DHT22;9648;51.130;13.978;2023-06-19T04:21:14;14.60;99.90
19031;DHT22;9648;51.130;13.978;2023-06-19T04:23:41;14.70;99.90
19031;DHT22;9648;51.130;13.978;2023-06-19T04:26:07;14.80;99.90
19031;DHT22;9648;51.130;13.978;2023-06-19T04:28:34;14.80;99.90
19031;DHT22;9648;51.130;13.978;2023-06-19T04:31:01;14.80;99.90
19031;DHT22;9648;51.130;13.978;2023-06-19T04:33:29;14.80;99.90
19031;DHT22;9648;51.130;13.978;2023-06-19T04:35:56;14.80;99.90
19031;DHT22;9648;51.130;13.978;2023-06-19T04:38:23;14.90;99.90
19031;DHT22;9648;51.130;13.978;2023-06-19T04:40:50;15.00;99.90
19031;DHT22;9648;51.130;13.978;2023-06-19T04:43:17;15.10;99.90
19031;DHT22;9648;51.130;13.978;2023-06-19T04:45:44;15.20;99.90
19031;DHT22;9648;51.130;13.978;2023-06-19T04:48:11;15.40;99.90
19031;DHT22;9648;51.130;13.978;2023-06-19T04:50:40;15.50;99.90
19031;DHT22;9648;51.130;13.978;2023-06-19T04:53:06;15.70;99.90
19031;DHT22;9648;51.130;13.978;2023-06-19T04:55:33;15.90;99.90
19031;DHT22;9648;51.130;13.978;2023-06-19T04:58:00;16.00;99.90
19031;DHT22;9648;51.130;13.978;2023-06-19T05:00:27;16.20;99.90
19031;DHT22;9648;51.130;13.978;2023-06-19T05:02:54;16.40;99.90
19031;DHT22;9648;51.130;13.978;2023-06-19T05:05:25;16.50;99.90
19031;DHT22;9648;51.130;13.978;2023-06-19T05:07:53;16.60;99.90
19031;DHT22;9648;51.130;13.978;2023-06-19T05:10:20;16.70;99.90
19031;DHT22;9648;51.130;13.978;2023-06-19T05:12:47;16.90;99.90
19031;DHT22;9648;51.130;13.978;2023-06-19T05:15:14;17.00;99.90
19031;DHT22;9648;51.130;13.978;2023-06-19T05:17:41;17.10;99.90
19031;DHT22;9648;51.130;13.978;2023-06-19T05:20:09;17.10;99.90
19031;DHT22;9648;51.130;13.978;2023-06-19T05:22:37;17.20;99.90
19031;DHT22;9648;51.130;13.978;2023-06-19T05:25:06;17.20;99.90
19031;DHT22;9648;51.130;13.978;2023-06-19T05:27:33;17.20;99.90
19031;DHT22;9648;51.130;13.978;2023-06-19T05:30:00;17.30;99.90
19031;DHT22;9648;51.130;13.978;2023-06-19T05:32:27;17.30;99.90
19031;DHT22;9648;51.130;13.978;2023-06-19T05:34:54;17.40;99.90
19031;DHT22;9648;51.130;13.978;2023-06-19T05:37:21;17.40;99.90
19031;DHT22;9648;51.130;13.978;2023-06-19T05:39:48;17.50;99.90
19031;DHT22;9648;51.130;13.978;2023-06-19T05:42:16;17.50;99.90
19031;DHT22;9648;51.130;13.978;2023-06-19T05:44:43;17.60;99.90
19031;DHT22;9648;51.130;13.978;2023-06-19T05:47:10;17.60;99.90
19031;DHT22;9648;51.130;13.978;2023-06-19T05:49:38;17.60;99.90
19031;DHT22;9648;51.130;13.978;2023-06-19T05:52:07;17.70;99.90
19031;DHT22;9648;51.130;13.978;2023-06-19T05:54:34;17.70;99.90
19031;DHT22;9648;51.130;13.978;2023-06-19T05:57:01;17.80;99.90
19031;DHT22;9648;51.130;13.978;2023-06-19T05:59:30;17.90;99.90
19031;DHT22;9648;51.130;13.978;2023-06-19T06:01:56;17.90;99.90
19031;DHT22;9648;51.130;13.978;2023-06-19T06:04:23;18.00;99.90
19031;DHT22;9648;51.130;13.978;2023-06-19T06:06:50;18.10;99.90
19031;DHT22;9648;51.130;13.978;2023-06-19T06:09:17;18.20;99.90
19031;DHT22;9648;51.130;13.978;2023-06-19T06:11:45;18.30;99.90
19031;DHT22;9648;51.130;13.978;2023-06-19T06:14:12;18.30;99.90
19031;DHT22;9648;51.130;13.978;2023-06-19T06:16:40;18.30;99.90
19031;DHT22;9648;51.130;13.978;2023-06-19T06:19:07;18.40;99.90
19031;DHT22;9648;51.130;13.978;2023-06-19T06:21:33;18.40;99.90
19031;DHT22;9648;51.130;13.978;2023-06-19T06:24:00;18.30;99.90
19031;DHT22;9648;51.130;13.978;2023-06-19T06:26:28;18.40;99.90
19031;DHT22;9648;51.130;13.978;2023-06-19T06:28:54;18.40;99.90
19031;DHT22;9648;51.130;13.978;2023-06-19T06:31:22;18.40;99.90
19031;DHT22;9648;51.130;13.978;2023-06-19T06:33:50;18.40;99.90
19031;DHT22;9648;51.130;13.978;2023-06-19T06:36:17;18.40;99.90
19031;DHT22;9648;51.130;13.978;2023-06-19T06:38:44;18.40;99.90
19031;DHT22;9648;51.130;13.978;2023-06-19T06:41:10;18.40;99.90
19031;DHT22;9648;51.130;13.978;2023-06-19T06:43:37;18.50;99.90
19031;DHT22;9648;51.130;13.978;2023-06-19T06:46:06;18.50;99.90
19031;DHT22;9648;51.130;13.978;2023-06-19T06:48:33;18.60;99.90
19031;DHT22;9648;51.130;13.978;2023-06-19T06:51:00;18.70;99.90
19031;DHT22;9648;51.130;13.978;2023-06-19T06:53:28;18.80;99.90
19031;DHT22;9648;51.130;13.978;2023-06-19T06:55:57;18.80;99.90
19031;DHT22;9648;51.130;13.978;2023-06-19T06:58:25;18.90;99.90
19031;DHT22;9648;51.130;13.978;2023-06-19T07:00:52;19.00;99.90
19031;DHT22;9648;51.130;13.978;2023-06-19T07:03:19;19.00;99.90
19031;DHT22;9648;51.130;13.978;2023-06-19T07:05:47;19.10;99.90
19031;DHT22;9648;51.130;13.978;2023-06-19T07:08:15;19.10;99.90
19031;DHT22;9648;51.130;13.978;2023-06-19T07:10:42;19.10;99.90
19031;DHT22;9648;51.130;13.978;2023-06-19T07:13:09;19.20;99.90
19031;DHT22;9648;51.130;13.978;2023-06-19T07:15:36;19.20;99.90
19031;DHT22;9648;51.130;13.978;2023-06-19T07:18:03;19.30;99.90
19031;DHT22;9648;51.130;13.978;2023-06-19T07:20:30;19.30;99.90
19031;DHT22;9648;51.130;13.978;2023-06-19T07:22:57;19.40;99.90
19031;DHT22;9648;51.130;13.978;2023-06-19T07:25:25;19.50;99.90
19031;DHT22;9648;51.130;13.978;2023-06-19T07:27:52;19.50;99.90
19031;DHT22;9648;51.130;13.978;2023-06-19T07:30:19;19.60;99.90
19031;DHT22;9648;51.130;13.978;2023-06-19T07:32:46;19.70;99.90
19031;DHT22;9648;51.130;13.978;2023-06-19T07:35:13;19.80;99.90
19031;DHT22;9648;51.130;13.978;2023-06-19T07:37:40;20.00;99.90
19031;DHT22;9648;51.130;13.978;2023-06-19T07:40:07;20.00;99.90
19031;DHT22;9648;51.130;13.978;2023-06-19T07:42:36;20.20;99.90
19031;DHT22;9648;51.130;13.978;2023-06-19T07:45:04;20.30;99.90
19031;DHT22;9648;51.130;13.978;2023-06-19T07:47:31;20.50;99.90
19031;DHT22;9648;51.130;13.978;2023-06-19T07:49:58;20.60;99.90
19031;DHT22;9648;51.130;13.978;2023-06-19T07:52:24;20.80;99.90
19031;DHT22;9648;51.130;13.978;2023-06-19T07:54:52;21.00;99.90
19031;DHT22;9648;51.130;13.978;2023-06-19T07:57:19;21.20;99.90
19031;DHT22;9648;51.130;13.978;2023-06-19T07:59:49;21.40;99.90
19031;DHT22;9648;51.130;13.978;2023-06-19T08:02:16;21.50;99.90
19031;DHT22;9648;51.130;13.978;2023-06-19T08:04:45;21.70;99.90
19031;DHT22;9648;51.130;13.978;2023-06-19T08:07:12;21.80;99.90
19031;DHT22;9648;51.130;13.978;2023-06-19T08:09:38;21.90;99.90
19031;DHT22;9648;51.130;13.978;2023-06-19T08:12:06;21.90;99.90
19031;DHT22;9648;51.130;13.978;2023-06-19T08:14:33;21.90;99.90
19031;DHT22;9648;51.130;13.978;2023-06-19T08:17:01;22.00;99.90
19031;DHT22;9648;51.130;13.978;2023-06-19T08:19:28;22.00;99.90
19031;DHT22;9648;51.130;13.978;2023-06-19T08:21:54;21.90;99.90
19031;DHT22;9648;51.130;13.978;2023-06-19T08:24:22;21.90;99.90
19031;DHT22;9648;51.130;13.978;2023-06-19T08:26:49;21.90;99.90
19031;DHT22;9648;51.130;13.978;2023-06-19T08:29:17;21.90;99.90
19031;DHT22;9648;51.130;13.978;2023-06-19T08:31:44;21.80;99.90
19031;DHT22;9648;51.130;13.978;2023-06-19T08:34:13;21.80;99.90
19031;DHT22;9648;51.130;13.978;2023-06-19T08:36:39;21.70;99.90
19031;DHT22;9648;51.130;13.978;2023-06-19T08:39:06;21.80;99.90
19031;DHT22;9648;51.130;13.978;2023-06-19T08:41:34;21.80;99.90
19031;DHT22;9648;51.130;13.978;2023-06-19T08:44:01;21.80;99.90
19031;DHT22;9648;51.130;13.978;2023-06-19T08:46:29;21.90;99.90
19031;DHT22;9648;51.130;13.978;2023-06-19T08:48:56;22.00;99.90
19031;DHT22;9648;51.130;13.978;2023-06-19T08:51:26;22.10;99.90
19031;DHT22;9648;51.130;13.978;2023-06-19T08:53:56;22.10;99.90
19031;DHT22;9648;51.130;13.978;2023-06-19T08:56:23;22.10;99.90
19031;DHT22;9648;51.130;13.978;2023-06-19T08:58:51;22.10;99.90
19031;DHT22;9648;51.130;13.978;2023-06-19T09:01:18;22.10;99.90
19031;DHT22;9648;51.130;13.978;2023-06-19T09:03:46;22.10;99.90
19031;DHT22;9648;51.130;13.978;2023-06-19T09:06:17;22.10;99.90
19031;DHT22;9648;51.130;13.978;2023-06-19T09:08:45;22.00;99.90
19031;DHT22;9648;51.130;13.978;2023-06-19T09:11:12;22.00;99.90
19031;DHT22;9648;51.130;13.978;2023-06-19T09:13:55;22.00;99.90
19031;DHT22;9648;51.130;13.978;2023-06-19T09:16:22;22.10;99.90
19031;DHT22;9648;51.130;13.978;2023-06-19T09:18:49;22.10;99.90
19031;DHT22;9648;51.130;13.978;2023-06-19T09:21:17;22.20;99.90
19031;DHT22;9648;51.130;13.978;2023-06-19T09:23:46;22.20;99.90
19031;DHT22;9648;51.130;13.978;2023-06-19T09:26:14;22.30;99.90
19031;DHT22;9648;51.130;13.978;2023-06-19T09:28:43;22.30;99.90
19031;DHT22;9648;51.130;13.978;2023-06-19T09:31:11;22.30;99.90
19031;DHT22;9648;51.130;13.978;2023-06-19T09:33:39;22.30;99.90
19031;DHT22;9648;51.130;13.978;2023-06-19T09:36:06;22.20;99.90
19031;DHT22;9648;51.130;13.978;2023-06-19T09:38:34;22.10;99.90
19031;DHT22;9648;51.130;13.978;2023-06-19T09:41:04;22.10;99.90
19031;DHT22;9648;51.130;13.978;2023-06-19T09:43:35;22.00;99.90
19031;DHT22;9648;51.130;13.978;2023-06-19T09:46:03;22.00;99.90
19031;DHT22;9648;51.130;13.978;2023-06-19T09:48:32;22.00;99.90
19031;DHT22;9648;51.130;13.978;2023-06-19T09:51:05;22.00;99.90
19031;DHT22;9648;51.130;13.978;2023-06-19T09:53:33;22.00;99.90
19031;DHT22;9648;51.130;13.978;2023-06-19T09:56:03;22.00;99.90
19031;DHT22;9648;51.130;13.978;2023-06-19T09:58:30;22.10;99.90
19031;DHT22;9648;51.130;13.978;2023-06-19T10:00:58;22.20;99.90
19031;DHT22;9648;51.130;13.978;2023-06-19T10:03:30;22.30;99.90
19031;DHT22;9648;51.130;13.978;2023-06-19T10:05:58;22.40;99.90
19031;DHT22;9648;51.130;13.978;2023-06-19T10:08:28;22.50;99.90
19031;DHT22;9648;51.130;13.978;2023-06-19T10:10:55;22.60;99.90
19031;DHT22;9648;51.130;13.978;2023-06-19T10:13:31;22.70;99.90
19031;DHT22;9648;51.130;13.978;2023-06-19T10:15:59;22.80;99.90
19031;DHT22;9648;51.130;13.978;2023-06-19T10:18:25;22.90;99.90
19031;DHT22;9648;51.130;13.978;2023-06-19T10:20:53;23.00;99.90
19031;DHT22;9648;51.130;13.978;2023-06-19T10:23:38;23.10;99.90
19031;DHT22;9648;51.130;13.978;2023-06-19T10:26:06;23.20;99.90
19031;DHT22;9648;51.130;13.978;2023-06-19T10:28:33;23.20;99.90
19031;DHT22;9648;51.130;13.978;2023-06-19T10:31:02;23.30;99.90
19031;DHT22;9648;51.130;13.978;2023-06-19T10:33:30;23.30;99.90
19031;DHT22;9648;51.130;13.978;2023-06-19T10:35:58;23.40;99.90
19031;DHT22;9648;51.130;13.978;2023-06-19T10:38:26;23.50;99.90
19031;DHT22;9648;51.130;13.978;2023-06-19T10:40:54;23.70;99.90
19031;DHT22;9648;51.130;13.978;2023-06-19T10:43:22;23.90;99.90
19031;DHT22;9648;51.130;13.978;2023-06-19T10:45:50;24.10;99.90
19031;DHT22;9648;51.130;13.978;2023-06-19T10:48:22;24.30;99.90
19031;DHT22;9648;51.130;13.978;2023-06-19T10:50:50;24.50;99.90
19031;DHT22;9648;51.130;13.978;2023-06-19T10:53:25;24.60;99.90
19031;DHT22;9648;51.130;13.978;2023-06-19T10:55:56;24.70;99.90
19031;DHT22;9648;51.130;13.978;2023-06-19T10:58:24;24.80;99.90
19031;DHT22;9648;51.130;13.978;2023-06-19T11:00:51;24.80;99.90
19031;DHT22;9648;51.130;13.978;2023-06-19T11:03:18;24.80;99.90
19031;DHT22;9648;51.130;13.978;2023-06-19T11:05:45;24.80;99.90
19031;DHT22;9648;51.130;13.978;2023-06-19T11:08:18;24.90;99.90
19031;DHT22;9648;51.130;13.978;2023-06-19T11:10:45;25.00;99.90
19031;DHT22;9648;51.130;13.978;2023-06-19T11:13:16;25.20;99.90
19031;DHT22;9648;51.130;13.978;2023-06-19T11:15:43;25.20;99.90
19031;DHT22;9648;51.130;13.978;2023-06-19T11:18:10;25.30;99.90
19031;DHT22;9648;51.130;13.978;2023-06-19T11:20:44;25.20;99.90
19031;DHT22;9648;51.130;13.978;2023-06-19T11:23:12;25.20;99.90
19031;DHT22;9648;51.130;13.978;2023-06-19T11:25:40;25.20;99.90
19031;DHT22;9648;51.130;13.978;2023-06-19T11:28:11;25.20;99.90
19031;DHT22;9648;51.130;13.978;2023-06-19T11:30:40;25.10;99.90
19031;DHT22;9648;51.130;13.978;2023-06-19T11:33:16;25.20;99.90
19031;DHT22;9648;51.130;13.978;2023-06-19T11:35:47;25.50;99.90
19031;DHT22;9648;51.130;13.978;2023-06-19T11:38:17;25.70;99.90
19031;DHT22;9648;51.130;13.978;2023-06-19T11:40:44;25.90;99.90
19031;DHT22;9648;51.130;13.978;2023-06-19T11:43:11;26.00;99.90
19031;DHT22;9648;51.130;13.978;2023-06-19T11:45:47;26.20;99.90
19031;DHT22;9648;51.130;13.978;2023-06-19T11:48:22;26.40;99.90
19031;DHT22;9648;51.130;13.978;2023-06-19T11:50:49;26.60;99.90
19031;DHT22;9648;51.130;13.978;2023-06-19T11:53:16;26.80;99.90
19031;DHT22;9648;51.130;13.978;2023-06-19T11:55:43;27.10;99.90
19031;DHT22;9648;51.130;13.978;2023-06-19T11:58:10;27.30;99.90
19031;DHT22;9648;51.130;13.978;2023-06-19T12:00:37;27.50;99.90
19031;DHT22;9648;51.130;13.978;2023-06-19T12:03:05;27.50;99.10
19031;DHT22;9648;51.130;13.978;2023-06-19T12:05:31;27.70;98.40
19031;DHT22;9648;51.130;13.978;2023-06-19T12:07:58;27.80;94.10
19031;DHT22;9648;51.130;13.978;2023-06-19T12:10:27;27.80;93.50
19031;DHT22;9648;51.130;13.978;2023-06-19T12:12:54;28.00;94.70
19031;DHT22;9648;51.130;13.978;2023-06-19T12:15:21;27.90;89.30
19031;DHT22;9648;51.130;13.978;2023-06-19T12:17:48;27.80;85.10
19031;DHT22;9648;51.130;13.978;2023-06-19T12:20:16;27.80;79.90
19031;DHT22;9648;51.130;13.978;2023-06-19T12:22:42;27.80;82.70
19031;DHT22;9648;51.130;13.978;2023-06-19T12:25:09;27.90;88.20
19031;DHT22;9648;51.130;13.978;2023-06-19T12:27:36;28.10;84.20
19031;DHT22;9648;51.130;13.978;2023-06-19T12:30:04;28.30;84.50
19031;DHT22;9648;51.130;13.978;2023-06-19T12:32:31;28.60;81.70
19031;DHT22;9648;51.130;13.978;2023-06-19T12:34:57;28.80;75.70
19031;DHT22;9648;51.130;13.978;2023-06-19T12:37:25;28.90;75.60
19031;DHT22;9648;51.130;13.978;2023-06-19T12:39:52;29.00;76.60
19031;DHT22;9648;51.130;13.978;2023-06-19T12:42:19;28.90;67.20
19031;DHT22;9648;51.130;13.978;2023-06-19T12:44:46;28.60;67.90
19031;DHT22;9648;51.130;13.978;2023-06-19T12:47:13;28.40;68.20
19031;DHT22;9648;51.130;13.978;2023-06-19T12:49:40;28.10;67.60
19031;DHT22;9648;51.130;13.978;2023-06-19T12:52:07;27.70;66.10
19031;DHT22;9648;51.130;13.978;2023-06-19T12:54:35;27.30;69.10
19031;DHT22;9648;51.130;13.978;2023-06-19T12:57:02;27.10;71.00
19031;DHT22;9648;51.130;13.978;2023-06-19T12:59:29;26.90;72.10
19031;DHT22;9648;51.130;13.978;2023-06-19T13:01:58;26.70;72.70
19031;DHT22;9648;51.130;13.978;2023-06-19T13:04:24;26.50;74.70
19031;DHT22;9648;51.130;13.978;2023-06-19T13:06:51;26.40;76.20
19031;DHT22;9648;51.130;13.978;2023-06-19T13:09:18;26.30;77.40
19031;DHT22;9648;51.130;13.978;2023-06-19T13:11:46;26.30;74.30
19031;DHT22;9648;51.130;13.978;2023-06-19T13:14:12;26.20;73.10
19031;DHT22;9648;51.130;13.978;2023-06-19T13:16:39;26.20;73.70
19031;DHT22;9648;51.130;13.978;2023-06-19T13:19:06;26.30;73.30
19031;DHT22;9648;51.130;13.978;2023-06-19T13:21:32;26.30;72.30
19031;DHT22;9648;51.130;13.978;2023-06-19T13:24:00;26.30;72.40
19031;DHT22;9648;51.130;13.978;2023-06-19T13:26:27;26.40;72.50
19031;DHT22;9648;51.130;13.978;2023-06-19T13:28:55;26.40;74.30
19031;DHT22;9648;51.130;13.978;2023-06-19T13:31:24;26.50;74.40
19031;DHT22;9648;51.130;13.978;2023-06-19T13:33:51;26.50;77.30
19031;DHT22;9648;51.130;13.978;2023-06-19T13:36:17;26.60;79.20
19031;DHT22;9648;51.130;13.978;2023-06-19T13:38:45;26.70;78.50
19031;DHT22;9648;51.130;13.978;2023-06-19T13:41:12;26.80;78.50
19031;DHT22;9648;51.130;13.978;2023-06-19T13:43:39;26.80;77.30
19031;DHT22;9648;51.130;13.978;2023-06-19T13:46:07;27.00;77.00
19031;DHT22;9648;51.130;13.978;2023-06-19T13:48:34;27.10;76.30
19031;DHT22;9648;51.130;13.978;2023-06-19T13:51:01;27.20;76.00
19031;DHT22;9648;51.130;13.978;2023-06-19T13:53:27;27.30;76.00
19031;DHT22;9648;51.130;13.978;2023-06-19T13:55:55;27.40;76.50
19031;DHT22;9648;51.130;13.978;2023-06-19T13:58:22;27.40;76.20
19031;DHT22;9648;51.130;13.978;2023-06-19T14:00:49;27.50;75.70
19031;DHT22;9648;51.130;13.978;2023-06-19T14:03:16;27.60;78.20
19031;DHT22;9648;51.130;13.978;2023-06-19T14:05:43;27.80;77.40
19031;DHT22;9648;51.130;13.978;2023-06-19T14:08:10;28.00;77.80
19031;DHT22;9648;51.130;13.978;2023-06-19T14:10:37;28.10;77.60
19031;DHT22;9648;51.130;13.978;2023-06-19T14:13:03;28.10;77.30
19031;DHT22;9648;51.130;13.978;2023-06-19T14:15:30;28.20;80.20
19031;DHT22;9648;51.130;13.978;2023-06-19T14:17:56;28.40;79.00
19031;DHT22;9648;51.130;13.978;2023-06-19T14:20:25;28.60;74.70
19031;DHT22;9648;51.130;13.978;2023-06-19T14:22:51;28.60;69.30
19031;DHT22;9648;51.130;13.978;2023-06-19T14:25:18;28.70;70.70
19031;DHT22;9648;51.130;13.978;2023-06-19T14:27:45;28.70;69.40
19031;DHT22;9648;51.130;13.978;2023-06-19T14:30:12;28.70;69.20
19031;DHT22;9648;51.130;13.978;2023-06-19T14:32:39;28.70;68.30
19031;DHT22;9648;51.130;13.978;2023-06-19T14:35:06;28.60;68.10
19031;DHT22;9648;51.130;13.978;2023-06-19T14:37:34;28.50;69.50
19031;DHT22;9648;51.130;13.978;2023-06-19T14:40:01;28.40;69.90
19031;DHT22;9648;51.130;13.978;2023-06-19T14:42:29;28.40;69.80
19031;DHT22;9648;51.130;13.978;2023-06-19T14:44:56;28.30;71.60
19031;DHT22;9648;51.130;13.978;2023-06-19T14:47:23;28.30;72.70
19031;DHT22;9648;51.130;13.978;2023-06-19T14:49:50;28.30;72.00
19031;DHT22;9648;51.130;13.978;2023-06-19T14:52:19;28.30;73.90
19031;DHT22;9648;51.130;13.978;2023-06-19T14:54:47;28.40;73.00
19031;DHT22;9648;51.130;13.978;2023-06-19T14:57:14;28.50;69.60
19031;DHT22;9648;51.130;13.978;2023-06-19T14:59:41;28.50;69.40
19031;DHT22;9648;51.130;13.978;2023-06-19T15:02:08;28.40;69.90
19031;DHT22;9648;51.130;13.978;2023-06-19T15:04:36;28.30;70.60
19031;DHT22;9648;51.130;13.978;2023-06-19T15:07:03;28.30;71.80
19031;DHT22;9648;51.130;13.978;2023-06-19T15:09:30;28.20;72.70
19031;DHT22;9648;51.130;13.978;2023-06-19T15:11:58;28.10;71.20
19031;DHT22;9648;51.130;13.978;2023-06-19T15:14:24;28.10;73.90
19031;DHT22;9648;51.130;13.978;2023-06-19T15:16:51;28.00;73.10
19031;DHT22;9648;51.130;13.978;2023-06-19T15:19:18;28.00;75.20
19031;DHT22;9648;51.130;13.978;2023-06-19T15:21:44;27.90;75.80
19031;DHT22;9648;51.130;13.978;2023-06-19T15:24:11;27.90;77.00
19031;DHT22;9648;51.130;13.978;2023-06-19T15:26:37;27.90;75.50
19031;DHT22;9648;51.130;13.978;2023-06-19T15:29:05;27.90;75.50
19031;DHT22;9648;51.130;13.978;2023-06-19T15:31:32;27.90;77.90